Flight Track Log - Related Links

Times and Time Zones

All times are in EDT time to prevent confusion due to time zone crossing. See the UAL4407 flight status page for this flight to view local times or setup timezone preferences in your user account.

Time Position Orientation Groundspeed Altitude Reporting Facility
EDT Latitude Longitude Course Direction KTS MPH feet Rate Location/Type
Tue 06:24:50 AM 42.9500 -71.4167 280° West 149 171 1,100  Level KA90
Tue 06:25:08 AM 42.9667 -71.4167 360° North 161 185 1,700 2,108 Climbing KA90
Tue 06:25:27 AM 42.9753 -71.4128 18° North 209 241 2,400 2,203 Climbing Boston Center
Tue 06:26:27 AM 43.0272 -71.4092 North 212 244 4,600 2,700 Climbing Boston Center
Tue 06:27:00 AM 42.9578 -71.7124 280° West  Level FlightAware Approximate
Tue 06:27:27 AM 43.0656 -71.4994 300° West 196 226 7,800  Level Boston Center
Tue 06:28:00 AM 42.9675 -71.8070 280° West  Level FlightAware Approximate
Tue 06:28:27 AM 43.0661 -71.5903 271° West 238 274 10,200  Level Boston Center
Tue 06:29:00 AM 42.9794 -71.9014 280° West  Level FlightAware Approximate
Tue 06:29:27 AM 43.0483 -71.7214 260° West 303 349 11,200  Level Boston Center
Tue 06:30:27 AM 43.0325 -71.8436 260° West 355 409 13,100 1,900 Climbing Boston Center
Tue 06:31:27 AM 43.0122 -71.9942 260° West 370 426 15,000 1,700 Climbing Boston Center
Tue 06:32:27 AM 42.9939 -72.1194 259° West 376 433 16,500 1,500 Climbing Boston Center
Tue 06:33:27 AM 42.9775 -72.2472 260° West 376 433 18,000 1,150 Climbing Boston Center
Tue 06:34:27 AM 42.9569 -72.4033 260° West 376 433 18,800 864 Climbing Boston Center
Tue 06:35:39 AM 42.9381 -72.5761 262° West 376 433 19,900 545 Climbing Boston Center
Tue 06:36:39 AM 42.9064 -72.7406 255° West 393 452 20,000 50 Climbing Boston Center
Tue 06:37:39 AM 42.8831 -72.8933 258° West 408 470 20,000  Level Boston Center
Tue 06:38:39 AM 42.8658 -73.0292 260° West 408 470 20,000  Level Boston Center
Tue 06:39:39 AM 42.8419 -73.1933 259° West 413 475 20,000  Level Boston Center
Tue 06:40:39 AM 42.8200 -73.3431 259° West 413 475 20,000 -400 Level Boston Center
Tue 06:41:39 AM 42.7978 -73.4897 258° West 413 475 19,200 -1,100 Descending Boston Center
Tue 06:42:39 AM 42.7653 -73.6222 252° West 391 450 17,800 -1,500 Descending Boston Center
Tue 06:43:39 AM 42.6936 -73.6914 215° Southwest 358 412 16,200 -850 Descending Boston Center
Tue 06:44:39 AM 42.5989 -73.7686 211° Southwest 358 412 16,100 -50 Descending Boston Center
Tue 06:45:39 AM 42.5192 -73.8233 207° Southwest 364 419 16,100  Level Boston Center
Tue 06:46:39 AM 42.4203 -73.8969 209° Southwest 369 425 16,100  Level Boston Center
Tue 06:47:39 AM 42.3403 -73.9569 209° Southwest 369 425 16,100  Level Boston Center
Tue 06:48:39 AM 42.2414 -74.0275 208° Southwest 369 425 16,100  Level Boston Center
Tue 06:49:39 AM 42.1469 -74.0753 201° Southwest 369 425 16,100  Level Boston Center
Tue 06:50:39 AM 42.0483 -74.1147 197° South 374 430 16,100  Level Boston Center
Tue 06:51:39 AM 41.9644 -74.1544 199° South 369 425 16,100 -350 Level Boston Center
Tue 06:52:39 AM 41.8572 -74.1989 197° South 369 425 15,400 -1,409 Descending Boston Center
Tue 06:53:51 AM 41.7461 -74.2486 198° South 369 425 13,000 -1,727 Descending Boston Center
Tue 06:54:51 AM 41.6728 -74.2800 198° South 340 391 11,600 -1,500 Descending Boston Center
Tue 06:55:51 AM 41.5886 -74.3164 198° South 307 353 10,000 -1,492 Descending Boston Center
Tue 06:57:00 AM 41.4843 -74.3517 196° South  Level FlightAware Approximate
Tue 06:57:56 AM 41.4333 -74.3833 196° South 268 308 7,000  Level New York TRACON
Tue 06:58:56 AM 41.3667 -74.4167 201° Southwest 273 314 7,000  Level New York TRACON
Tue 06:59:56 AM 41.3000 -74.4500 201° Southwest 269 310 7,000  Level New York TRACON
Tue 07:00:56 AM 41.2167 -74.4333 171° South 271 312 7,000  Level New York TRACON
Tue 07:01:56 AM 41.1500 -74.4000 159° South 244 281 7,000  Level New York TRACON
Tue 07:02:56 AM 41.1000 -74.3667 153° Southeast 227 261 7,000  Level New York TRACON
Tue 07:03:56 AM 41.0500 -74.3833 194° South 249 287 7,000  Level New York TRACON
Tue 07:04:56 AM 41.0333 -74.4667 255° West 237 273 7,000 -400 Level New York TRACON
Tue 07:05:56 AM 41.0167 -74.5667 258° West 235 270 6,200 -331 Descending New York TRACON
Tue 07:07:00 AM 40.9255 -74.5591 176° South  Level FlightAware Approximate
Tue 07:07:57 AM 40.9333 -74.6333 176° South 226 260 6,000  Level New York TRACON
Tue 07:08:57 AM 40.8667 -74.6167 169° South 224 258 6,000 -250 Level New York TRACON
Tue 07:10:00 AM 40.7800 -74.5851 165° South  Level FlightAware Approximate
Tue 07:11:57 AM 40.6833 -74.5667 78° East 215 247 5,000  Level New York TRACON
Tue 07:12:57 AM 40.6167 -74.5500 169° South 214 246 5,000 -200 Level New York TRACON
Tue 07:14:00 AM 40.6372 -74.4474 72° East  Level Estimated
Tue 07:14:57 AM 40.5167 -74.5167 72° East 193 222 4,400  Level New York TRACON
Tue 07:15:57 AM 40.4667 -74.5000 166° South 194 223 3,300 -700 Descending New York TRACON
Tue 07:16:57 AM 40.4167 -74.4667 153° Southeast 165 190 3,000 -75 Descending New York TRACON
Tue 07:17:00 AM 40.6833 -74.1667 78° East  Level FlightAware Approximate
Tue 07:18:00 AM 40.4790 -74.3997 39° Northeast  Level Estimated
Tue 07:19:58 AM 40.4500 -74.3167 39° Northeast 163 188 3,000  Level New York TRACON

Login

Don't have an account? Register now (free) for customized features, flight alerts, and more!